createdAt,value
2023-05-12T00:00:48.592Z,95595.13
2023-05-12T00:03:15.258Z,95604.72
2023-05-12T00:05:42.793Z,95603.69
2023-05-12T00:08:09.294Z,95611.53
2023-05-12T00:10:35.748Z,95612.03
2023-05-12T00:13:02.643Z,95559.38
2023-05-12T00:15:29.141Z,95589.69
2023-05-12T00:17:55.709Z,95605.94
2023-05-12T00:20:22.551Z,95580.63
2023-05-12T00:22:49.101Z,95575.06
2023-05-12T00:25:15.838Z,95563.63
2023-05-12T00:27:42.555Z,95604.16
2023-05-12T00:30:10.026Z,95553.91
2023-05-12T00:32:36.528Z,95592.31
2023-05-12T00:35:03.100Z,95591.25
2023-05-12T00:37:29.666Z,95579.97
2023-05-12T00:39:56.127Z,95598.88
2023-05-12T00:42:22.560Z,95586.50
2023-05-12T00:44:49.005Z,95576.50
2023-05-12T00:47:15.606Z,95571.47
2023-05-12T00:49:42.715Z,95578.06
2023-05-12T00:52:09.485Z,95576.25
2023-05-12T00:54:36.979Z,95579.66
2023-05-12T00:57:03.727Z,95573.94
2023-05-12T00:59:31.054Z,95574.19
2023-05-12T01:01:57.740Z,95561.47
2023-05-12T01:04:25.539Z,95574.22
2023-05-12T01:06:59.821Z,95592.31
2023-05-12T01:09:26.658Z,95583.34
2023-05-12T01:11:54.500Z,95556.75
2023-05-12T01:14:21.049Z,95568.13
2023-05-12T01:17:01.693Z,95585.25
2023-05-12T01:19:51.956Z,95589.47
2023-05-12T01:22:18.999Z,95581.28
2023-05-12T01:24:50.385Z,95581.34
2023-05-12T01:27:18.031Z,95579.56
2023-05-12T01:29:49.074Z,95573.00
2023-05-12T01:32:18.545Z,95559.81
2023-05-12T01:34:45.517Z,95568.75
2023-05-12T01:37:12.689Z,95568.75
2023-05-12T01:39:40.093Z,95577.16
2023-05-12T01:42:08.501Z,95583.16
2023-05-12T01:44:35.011Z,95571.59
2023-05-12T01:47:01.901Z,95569.25
2023-05-12T01:49:29.597Z,95567.63
2023-05-12T01:51:56.256Z,95571.81
2023-05-12T01:54:28.675Z,95586.50
2023-05-12T01:56:55.219Z,95570.50
2023-05-12T01:59:22.239Z,95570.81
2023-05-12T02:01:48.790Z,95532.09
2023-05-12T02:04:21.376Z,95568.59
2023-05-12T02:06:48.609Z,95577.47
2023-05-12T02:09:15.095Z,95568.13
2023-05-12T02:11:41.767Z,95533.16
2023-05-12T02:14:08.376Z,95568.91
2023-05-12T02:16:35.033Z,95575.16
2023-05-12T02:19:01.687Z,95577.00
2023-05-12T02:21:28.296Z,95573.88
2023-05-12T02:23:56.127Z,95573.44
2023-05-12T02:26:22.654Z,95573.72
2023-05-12T02:28:49.380Z,95567.69
2023-05-12T02:31:15.841Z,95568.44
2023-05-12T02:33:43.085Z,95559.78
2023-05-12T02:36:09.595Z,95546.97
2023-05-12T02:38:36.372Z,95561.88
2023-05-12T02:41:02.845Z,95557.09
2023-05-12T02:43:29.273Z,95546.16
2023-05-12T02:45:55.853Z,95564.13
2023-05-12T02:48:22.481Z,95565.63
2023-05-12T02:50:48.949Z,95574.03
2023-05-12T02:53:15.442Z,95573.34
2023-05-12T02:55:42.024Z,95562.84
2023-05-12T02:58:08.573Z,95562.06
2023-05-12T03:00:35.218Z,95573.75
2023-05-12T03:03:01.830Z,95566.31
2023-05-12T03:05:28.393Z,95574.38
2023-05-12T03:07:54.946Z,95570.47
2023-05-12T03:10:22.350Z,95572.28
2023-05-12T03:12:48.965Z,95574.94
2023-05-12T03:15:15.547Z,95564.19
2023-05-12T03:17:42.239Z,95572.88
2023-05-12T03:20:09.145Z,95567.69
2023-05-12T03:22:36.813Z,95576.00
2023-05-12T03:25:05.007Z,95584.91
2023-05-12T03:27:35.073Z,95581.28
2023-05-12T03:30:02.226Z,95573.44
2023-05-12T03:32:30.500Z,95583.06
2023-05-12T03:34:56.979Z,95574.94
2023-05-12T03:37:23.569Z,95566.31
2023-05-12T03:39:50.497Z,95575.16
2023-05-12T03:42:17.063Z,95585.94
2023-05-12T03:44:43.860Z,95579.66
2023-05-12T03:47:10.683Z,95579.88
2023-05-12T03:49:37.343Z,95576.25
2023-05-12T03:52:04.234Z,95583.56
2023-05-12T03:54:30.852Z,95570.97
2023-05-12T03:56:57.478Z,95583.31
2023-05-12T03:59:23.940Z,95566.78
2023-05-12T04:01:53.185Z,95574.91
2023-05-12T04:04:19.748Z,95574.19
2023-05-12T04:06:46.193Z,95568.41
2023-05-12T04:09:12.647Z,95570.81
2023-05-12T04:11:39.159Z,95559.22
2023-05-12T04:14:05.948Z,95575.91
2023-05-12T04:16:32.607Z,95580.91
2023-05-12T04:18:59.195Z,95581.44
2023-05-12T04:21:25.778Z,95578.59
2023-05-12T04:23:55.195Z,95586.44
2023-05-12T04:26:26.886Z,95579.59
2023-05-12T04:28:53.440Z,95585.63
2023-05-12T04:31:20.052Z,95589.06
2023-05-12T04:33:48.250Z,95585.94
2023-05-12T04:36:15.126Z,95581.25
2023-05-12T04:38:41.900Z,95576.31
2023-05-12T04:41:09.350Z,95599.84
2023-05-12T04:46:06.031Z,95588.56
2023-05-12T04:48:32.495Z,95602.91
2023-05-12T04:51:00.122Z,95597.63
2023-05-12T04:53:27.677Z,95604.53
2023-05-12T04:55:54.359Z,95590.63
2023-05-12T04:58:20.846Z,95602.72
2023-05-12T05:00:47.773Z,95599.03
2023-05-12T05:03:14.318Z,95602.41
2023-05-12T05:05:40.948Z,95607.31
2023-05-12T05:08:07.710Z,95597.94
2023-05-12T05:10:34.937Z,95611.94
2023-05-12T05:13:02.527Z,95614.34
2023-05-12T05:15:29.135Z,95619.56
2023-05-12T05:17:55.711Z,95611.44
2023-05-12T05:22:51.623Z,95608.69
2023-05-12T05:25:19.515Z,95620.00
2023-05-12T05:27:46.517Z,95609.25
2023-05-12T05:30:13.564Z,95611.31
2023-05-12T05:32:40.943Z,95629.41
2023-05-12T05:35:08.387Z,95615.75
2023-05-12T05:37:38.770Z,95616.88
2023-05-12T05:40:06.027Z,95616.97
2023-05-12T05:42:32.616Z,95619.09
2023-05-12T05:44:59.557Z,95619.78
2023-05-12T05:47:28.120Z,95611.09
2023-05-12T05:49:55.308Z,95627.28
2023-05-12T05:52:22.606Z,95624.78
2023-05-12T05:54:49.064Z,95624.22
2023-05-12T05:57:16.324Z,95620.50
2023-05-12T05:59:43.002Z,95639.13
2023-05-12T06:02:09.503Z,95637.97
2023-05-12T06:04:39.287Z,95624.66
2023-05-12T06:07:06.800Z,95629.97
2023-05-12T06:09:33.321Z,95619.44
2023-05-12T06:11:59.763Z,95619.97
2023-05-12T06:14:26.217Z,95622.28
2023-05-12T06:16:54.998Z,95620.72
2023-05-12T06:19:23.537Z,95634.91
2023-05-12T06:21:50.049Z,95623.34
2023-05-12T06:24:16.512Z,95627.56
2023-05-12T06:26:43.008Z,95635.13
2023-05-12T06:29:09.521Z,95636.63
2023-05-12T06:31:36.415Z,95626.22
2023-05-12T06:34:03.121Z,95636.75
2023-05-12T06:36:32.701Z,95639.97
2023-05-12T06:39:00.615Z,95647.19
2023-05-12T06:41:27.093Z,95643.03
2023-05-12T06:43:53.610Z,95633.19
2023-05-12T06:46:27.270Z,95651.44
2023-05-12T06:48:55.553Z,95651.59
2023-05-12T06:51:22.055Z,95641.69
2023-05-12T06:53:48.687Z,95646.69
2023-05-12T06:56:17.033Z,95645.63
2023-05-12T06:58:43.996Z,95646.75
2023-05-12T07:01:10.570Z,95657.00
2023-05-12T07:03:37.063Z,95639.13
2023-05-12T07:06:03.701Z,95648.88
2023-05-12T07:08:30.227Z,95640.13
2023-05-12T07:10:56.733Z,95644.59
2023-05-12T07:13:23.190Z,95653.94
2023-05-12T07:15:49.644Z,95656.16
2023-05-12T07:18:16.255Z,95652.81
2023-05-12T07:20:43.419Z,95638.78
2023-05-12T07:23:09.939Z,95647.72
2023-05-12T07:25:36.534Z,95641.47
2023-05-12T07:28:03.038Z,95645.97
2023-05-12T07:30:29.592Z,95642.75
2023-05-12T07:32:56.027Z,95645.63
2023-05-12T07:35:22.789Z,95636.75
2023-05-12T07:37:49.415Z,95642.97
2023-05-12T07:40:15.873Z,95638.81
2023-05-12T07:42:42.321Z,95653.78
2023-05-12T07:45:08.882Z,95640.13
2023-05-12T07:47:35.466Z,95658.72
2023-05-12T07:50:02.136Z,95660.28
2023-05-12T07:52:28.646Z,95644.06
2023-05-12T07:54:57.557Z,95652.16
2023-05-12T07:57:24.429Z,95657.91
2023-05-12T07:59:50.857Z,95652.44
2023-05-12T08:02:17.515Z,95634.03
2023-05-12T08:04:44.557Z,95654.88
2023-05-12T08:07:11.149Z,95646.47
2023-05-12T08:09:37.559Z,95648.88
2023-05-12T08:12:04.236Z,95650.72
2023-05-12T08:14:30.663Z,95648.09
2023-05-12T08:16:57.156Z,95650.38
2023-05-12T08:19:23.862Z,95647.53
2023-05-12T08:21:51.391Z,95642.75
2023-05-12T08:24:17.845Z,95648.97
2023-05-12T08:26:44.321Z,95646.72
2023-05-12T08:29:10.740Z,95640.75
2023-05-12T08:31:38.662Z,95651.28
2023-05-12T08:36:34.976Z,95658.44
2023-05-12T08:39:02.309Z,95654.28
2023-05-12T08:41:43.164Z,95636.81
2023-05-12T08:44:10.878Z,95664.00
2023-05-12T08:46:37.861Z,95651.53
2023-05-12T08:49:06.171Z,95664.22
2023-05-12T08:51:33.171Z,95659.84
2023-05-12T08:53:59.684Z,95656.53
2023-05-12T08:58:56.741Z,95670.13
2023-05-12T09:01:24.704Z,95654.16
2023-05-12T09:03:53.027Z,95665.91
2023-05-12T09:06:19.722Z,95644.69
2023-05-12T09:08:46.233Z,95660.56
2023-05-12T09:11:13.518Z,95627.50
2023-05-12T09:14:02.910Z,95671.63
2023-05-12T09:16:33.613Z,95668.69
2023-05-12T09:19:02.665Z,95663.53
2023-05-12T09:21:30.320Z,95655.00
2023-05-12T09:24:05.878Z,95663.13
2023-05-12T09:26:45.336Z,95661.50
2023-05-12T09:29:20.801Z,95654.16
2023-05-12T09:31:57.692Z,95660.34
2023-05-12T09:34:40.734Z,95661.91
2023-05-12T09:37:08.035Z,95663.66
2023-05-12T09:39:36.146Z,95663.13
2023-05-12T09:42:02.696Z,95656.06
2023-05-12T09:44:30.036Z,95662.84
2023-05-12T09:47:05.510Z,95665.75
2023-05-12T09:49:32.044Z,95658.03
2023-05-12T09:51:59.396Z,95667.16
2023-05-12T09:54:30.462Z,95672.06
2023-05-12T09:56:59.975Z,95674.91
2023-05-12T09:59:31.004Z,95658.25
2023-05-12T10:02:00.437Z,95664.72
2023-05-12T10:04:39.428Z,95675.88
2023-05-12T10:07:09.863Z,95667.09
2023-05-12T10:09:39.341Z,95661.84
2023-05-12T10:12:06.520Z,95653.38
2023-05-12T10:14:35.429Z,95662.44
2023-05-12T10:17:02.338Z,95658.00
2023-05-12T10:19:30.758Z,95659.84
2023-05-12T10:21:58.308Z,95654.75
2023-05-12T10:24:27.378Z,95662.97
2023-05-12T10:26:57.518Z,95642.09
2023-05-12T10:29:30.134Z,95658.66
2023-05-12T10:31:57.837Z,95669.41
2023-05-12T10:34:33.649Z,95671.56
2023-05-12T10:37:00.627Z,95666.44
2023-05-12T10:39:32.749Z,95674.31
2023-05-12T10:42:09.694Z,95676.16
2023-05-12T10:44:47.569Z,95679.16
2023-05-12T10:47:17.308Z,95657.56
2023-05-12T10:49:43.879Z,95674.88
2023-05-12T10:52:19.722Z,95672.22
2023-05-12T10:54:47.675Z,95675.28
2023-05-12T10:57:21.216Z,95669.13
2023-05-12T10:59:56.269Z,95687.03
2023-05-12T11:02:36.242Z,95665.97
2023-05-12T11:05:10.574Z,95684.88
2023-05-12T11:07:37.813Z,95669.19
2023-05-12T11:10:06.095Z,95691.72
2023-05-12T11:12:36.584Z,95642.03
2023-05-12T11:15:05.458Z,95677.00
2023-05-12T11:17:32.338Z,95684.06
2023-05-12T11:20:00.784Z,95647.97
2023-05-12T11:22:27.465Z,95685.75
2023-05-12T11:24:54.136Z,95678.38
2023-05-12T11:27:22.518Z,95695.63
2023-05-12T11:30:00.417Z,95689.16
2023-05-12T11:32:27.670Z,95689.63
2023-05-12T11:34:54.249Z,95667.50
2023-05-12T11:37:21.375Z,95697.19
2023-05-12T11:39:48.338Z,95690.84
2023-05-12T11:42:16.315Z,95673.78
2023-05-12T11:44:49.845Z,95677.94
2023-05-12T11:47:17.509Z,95695.75
2023-05-12T11:49:52.134Z,95696.03
2023-05-12T11:52:20.560Z,95693.69
2023-05-12T11:55:00.812Z,95644.03
2023-05-12T11:57:29.615Z,95682.84
2023-05-12T12:00:02.233Z,95706.72
2023-05-12T12:02:33.369Z,95686.56
2023-05-12T12:05:00.517Z,95702.72
2023-05-12T12:07:35.228Z,95704.38
2023-05-12T12:10:18.971Z,95696.56
2023-05-12T12:12:46.127Z,95699.97
2023-05-12T12:15:13.072Z,95706.16
2023-05-12T12:17:40.340Z,95704.88
2023-05-12T12:20:08.429Z,95697.06
2023-05-12T12:22:35.318Z,95698.91
2023-05-12T12:25:02.942Z,95713.28
2023-05-12T12:27:29.630Z,95713.50
2023-05-12T12:29:56.266Z,95714.31
2023-05-12T12:32:22.734Z,95693.63
2023-05-12T12:34:49.556Z,95699.09
2023-05-12T12:37:17.029Z,95696.09
2023-05-12T12:39:43.508Z,95696.09
2023-05-12T12:42:10.051Z,95708.22
2023-05-12T12:44:36.539Z,95694.91
2023-05-12T12:47:03.399Z,95641.13
2023-05-12T12:49:29.887Z,95707.03
2023-05-12T12:51:56.456Z,95705.69
2023-05-12T12:54:23.081Z,95708.78
2023-05-12T12:56:50.359Z,95695.44
2023-05-12T12:59:16.790Z,95656.38
2023-05-12T13:01:43.526Z,95670.38
2023-05-12T13:04:10.072Z,95697.81
2023-05-12T13:06:36.953Z,95663.31
2023-05-12T13:09:03.954Z,95687.41
2023-05-12T13:11:30.572Z,95691.47
2023-05-12T13:13:57.042Z,95708.13
2023-05-12T13:16:23.623Z,95666.78
2023-05-12T13:18:50.289Z,95679.53
2023-05-12T13:21:18.800Z,95703.72
2023-05-12T13:23:45.396Z,95660.25
2023-05-12T13:26:11.918Z,95665.16
2023-05-12T13:28:38.389Z,95694.06
2023-05-12T13:31:06.022Z,95704.72
2023-05-12T13:33:32.670Z,95665.94
2023-05-12T13:35:59.340Z,95698.47
2023-05-12T13:38:26.323Z,95692.19
2023-05-12T13:40:52.992Z,95688.69
2023-05-12T13:43:19.643Z,95707.09
2023-05-12T13:45:46.353Z,95668.41
2023-05-12T13:48:12.905Z,95699.47
2023-05-12T13:50:39.594Z,95701.72
2023-05-12T13:53:06.531Z,95651.19
2023-05-12T13:55:34.237Z,95713.44
2023-05-12T13:58:00.699Z,95712.97
2023-05-12T14:00:29.680Z,95703.63
2023-05-12T14:02:57.736Z,95698.16
2023-05-12T14:05:24.548Z,95710.00
2023-05-12T14:07:51.386Z,95665.97
2023-05-12T14:10:18.593Z,95677.72
2023-05-12T14:12:45.384Z,95703.84
2023-05-12T14:17:46.237Z,95700.72
2023-05-12T14:20:12.843Z,95696.59
2023-05-12T14:22:39.521Z,95654.91
2023-05-12T14:25:06.453Z,95676.53
2023-05-12T14:27:32.957Z,95706.19
2023-05-12T14:29:59.500Z,95714.63
2023-05-12T14:32:26.159Z,95702.38
2023-05-12T14:34:52.891Z,95696.31
2023-05-12T14:37:19.446Z,95707.09
2023-05-12T14:39:49.016Z,95682.13
2023-05-12T14:42:15.602Z,95717.84
2023-05-12T14:44:43.451Z,95670.69
2023-05-12T14:47:10.113Z,95714.94
2023-05-12T14:49:36.609Z,95668.50
2023-05-12T14:52:03.666Z,95689.28
2023-05-12T14:54:30.225Z,95661.25
2023-05-12T14:56:56.864Z,95709.84
2023-05-12T14:59:23.557Z,95702.66
2023-05-12T15:01:50.370Z,95710.13
2023-05-12T15:04:16.989Z,95708.28
2023-05-12T15:06:43.467Z,95715.50
2023-05-12T15:09:09.968Z,95695.72
2023-05-12T15:11:36.931Z,95665.97
2023-05-12T15:14:04.728Z,95728.25
2023-05-12T15:16:32.806Z,95721.38
2023-05-12T15:18:59.390Z,95705.53
2023-05-12T15:21:26.361Z,95720.41
2023-05-12T15:23:53.119Z,95684.38
2023-05-12T15:28:54.196Z,95693.38
2023-05-12T15:31:21.010Z,95709.06
2023-05-12T15:33:47.593Z,95730.50
2023-05-12T15:36:14.248Z,95700.63
2023-05-12T15:38:42.356Z,95710.13
2023-05-12T15:41:08.843Z,95740.00
2023-05-12T15:43:38.926Z,95731.56
2023-05-12T15:46:05.666Z,95724.91
2023-05-12T15:48:32.596Z,95725.59
2023-05-12T15:51:02.721Z,95722.66
2023-05-12T15:53:29.205Z,95720.78
2023-05-12T15:56:00.363Z,95736.09
2023-05-12T15:58:26.924Z,95718.16
2023-05-12T16:00:54.567Z,95724.50
2023-05-12T16:03:21.166Z,95711.78
2023-05-12T16:05:47.739Z,95715.31
2023-05-12T16:08:14.256Z,95724.03
2023-05-12T16:10:40.933Z,95708.41
2023-05-12T16:13:07.394Z,95724.50
2023-05-12T16:15:33.842Z,95727.97
2023-05-12T16:18:00.335Z,95694.31
2023-05-12T16:20:26.886Z,95717.19
2023-05-12T16:22:53.440Z,95718.47
2023-05-12T16:25:20.110Z,95714.34
2023-05-12T16:27:46.808Z,95701.44
2023-05-12T16:30:13.793Z,95726.69
2023-05-12T16:32:40.330Z,95721.38
2023-05-12T16:35:07.556Z,95733.63
2023-05-12T16:37:34.155Z,95741.66
2023-05-12T16:40:00.775Z,95738.81
2023-05-12T16:42:28.354Z,95735.19
2023-05-12T16:44:57.910Z,95720.31
2023-05-12T16:47:24.507Z,95734.13
2023-05-12T16:49:54.301Z,95734.50
2023-05-12T16:52:20.941Z,95748.69
2023-05-12T16:54:47.825Z,95720.53
2023-05-12T16:57:15.644Z,95740.56
2023-05-12T16:59:42.133Z,95744.59
2023-05-12T17:02:08.806Z,95734.91
2023-05-12T17:04:35.374Z,95733.28
2023-05-12T17:07:01.969Z,95752.50
2023-05-12T17:09:28.391Z,95746.75
2023-05-12T17:11:54.847Z,95747.09
2023-05-12T17:14:21.433Z,95724.06
2023-05-12T17:16:52.370Z,95748.50
2023-05-12T17:19:19.019Z,95745.38
2023-05-12T17:21:45.524Z,95745.38
2023-05-12T17:24:11.986Z,95729.91
2023-05-12T17:26:38.468Z,95749.53
2023-05-12T17:29:05.236Z,95750.50
2023-05-12T17:31:57.737Z,95760.88
2023-05-12T17:34:24.239Z,95769.88
2023-05-12T17:36:50.873Z,95752.53
2023-05-12T17:39:17.421Z,95755.25
2023-05-12T17:41:45.177Z,95748.88
2023-05-12T17:44:15.854Z,95763.47
2023-05-12T17:46:42.389Z,95763.75
2023-05-12T17:49:09.118Z,95764.34
2023-05-12T17:51:35.614Z,95779.13
2023-05-12T17:54:03.732Z,95769.63
2023-05-12T17:56:30.760Z,95772.56
2023-05-12T17:58:57.356Z,95758.09
2023-05-12T18:01:24.041Z,95778.69
2023-05-12T18:03:50.579Z,95769.72
2023-05-12T18:06:17.162Z,95792.34
2023-05-12T18:08:47.735Z,95789.19
2023-05-12T18:11:40.858Z,95790.75
2023-05-12T18:14:13.640Z,95779.28
2023-05-12T18:16:43.953Z,95792.78
2023-05-12T18:19:12.625Z,95768.94
2023-05-12T18:21:39.275Z,95770.53
2023-05-12T18:24:05.992Z,95783.44
2023-05-12T18:26:32.672Z,95784.88
2023-05-12T18:29:03.273Z,95792.34
2023-05-12T18:31:31.049Z,95783.44
2023-05-12T18:33:57.557Z,95781.16
2023-05-12T18:36:25.150Z,95786.63
2023-05-12T18:38:51.670Z,95785.59
2023-05-12T18:41:18.798Z,95784.34
2023-05-12T18:43:45.976Z,95764.53
2023-05-12T18:46:12.549Z,95757.63
2023-05-12T18:48:39.839Z,95795.50
2023-05-12T18:51:06.528Z,95784.94
2023-05-12T18:53:32.994Z,95783.72
2023-05-12T18:55:59.505Z,95791.88
2023-05-12T18:58:26.205Z,95801.00
2023-05-12T19:00:53.227Z,95793.94
2023-05-12T19:03:19.785Z,95802.16
2023-05-12T19:05:48.706Z,95798.28
2023-05-12T19:08:19.881Z,95787.94
2023-05-12T19:10:47.749Z,95808.22
2023-05-12T19:13:14.834Z,95802.72
2023-05-12T19:15:41.588Z,95803.28
2023-05-12T19:18:09.042Z,95805.06
2023-05-12T19:20:37.199Z,95809.78
2023-05-12T19:23:03.789Z,95795.63
2023-05-12T19:25:30.358Z,95793.88
2023-05-12T19:27:56.832Z,95807.78
2023-05-12T19:30:25.314Z,95816.22
2023-05-12T19:32:51.856Z,95793.94
2023-05-12T19:35:18.516Z,95810.22
2023-05-12T19:37:51.092Z,95814.63
2023-05-12T19:40:17.581Z,95819.97
2023-05-12T19:42:44.053Z,95824.03
2023-05-12T19:45:11.712Z,95818.63
2023-05-12T19:47:38.782Z,95817.06
2023-05-12T19:50:10.004Z,95818.91
2023-05-12T19:53:32.742Z,95820.63
2023-05-12T19:55:59.175Z,95813.56
2023-05-12T19:58:26.410Z,95817.69
2023-05-12T20:00:54.666Z,95804.91
2023-05-12T20:03:21.434Z,95820.41
2023-05-12T20:05:48.618Z,95819.91
2023-05-12T20:08:15.421Z,95813.91
2023-05-12T20:10:41.883Z,95818.72
2023-05-12T20:13:08.401Z,95802.31
2023-05-12T20:15:34.999Z,95807.56
2023-05-12T20:18:01.555Z,95819.25
2023-05-12T20:20:28.273Z,95819.47
2023-05-12T20:22:54.834Z,95818.22
2023-05-12T20:25:21.631Z,95818.59
2023-05-12T20:27:48.767Z,95819.91
2023-05-12T20:30:15.465Z,95812.59
2023-05-12T20:32:43.506Z,95817.31
2023-05-12T20:35:10.151Z,95823.97
2023-05-12T20:37:41.095Z,95815.81
2023-05-12T20:40:12.260Z,95824.97
2023-05-12T20:42:49.972Z,95818.97
2023-05-12T20:45:16.795Z,95824.38
2023-05-12T20:47:43.386Z,95819.75
2023-05-12T20:50:11.897Z,95819.03
2023-05-12T20:52:40.768Z,95826.59
2023-05-12T20:55:08.214Z,95801.75
2023-05-12T20:57:43.986Z,95811.22
2023-05-12T21:00:14.604Z,95827.22
2023-05-12T21:02:41.246Z,95815.78
2023-05-12T21:05:10.125Z,95825.38
2023-05-12T21:08:07.686Z,95836.78
2023-05-12T21:11:00.189Z,95831.94
2023-05-12T21:13:27.466Z,95826.03
2023-05-12T21:15:53.969Z,95818.75
2023-05-12T21:18:20.466Z,95817.97
2023-05-12T21:20:50.086Z,95820.34
2023-05-12T21:23:16.565Z,95810.13
2023-05-12T21:25:43.256Z,95837.16
2023-05-12T21:28:09.968Z,95817.91
2023-05-12T21:30:37.322Z,95826.34
2023-05-12T21:33:04.512Z,95829.19
2023-05-12T21:35:31.090Z,95811.13
2023-05-12T21:37:57.600Z,95820.84
2023-05-12T21:40:24.527Z,95835.81
2023-05-12T21:42:51.082Z,95827.66
2023-05-12T21:45:20.308Z,95825.66
2023-05-12T21:47:50.114Z,95835.44
2023-05-12T21:50:23.206Z,95808.16
2023-05-12T21:52:50.352Z,95810.31
2023-05-12T21:55:31.185Z,95824.47
2023-05-12T21:57:58.605Z,95823.91
2023-05-12T22:00:57.414Z,95835.50
2023-05-12T22:03:25.239Z,95835.53
2023-05-12T22:06:02.968Z,95837.22
2023-05-12T22:08:30.144Z,95838.72
2023-05-12T22:10:56.608Z,95839.84
2023-05-12T22:13:23.053Z,95843.03
2023-05-12T22:15:49.771Z,95846.47
2023-05-12T22:18:16.736Z,95824.91
2023-05-12T22:20:43.286Z,95838.25
2023-05-12T22:23:14.094Z,95829.13
2023-05-12T22:25:40.544Z,95833.13
2023-05-12T22:28:07.366Z,95826.59
2023-05-12T22:30:36.255Z,95834.13
2023-05-12T22:33:02.768Z,95828.94
2023-05-12T22:35:29.306Z,95828.34
2023-05-12T22:37:55.745Z,95826.28
2023-05-12T22:40:23.180Z,95825.19
2023-05-12T22:42:49.853Z,95823.09
2023-05-12T22:45:16.322Z,95832.03
2023-05-12T22:47:42.810Z,95819.13
2023-05-12T22:50:10.029Z,95815.94
2023-05-12T22:52:36.662Z,95832.06
2023-05-12T22:55:03.146Z,95825.03
2023-05-12T22:57:29.654Z,95814.47
2023-05-12T22:59:56.216Z,95823.22
2023-05-12T23:02:22.793Z,95818.41
2023-05-12T23:04:49.284Z,95819.44
2023-05-12T23:07:15.811Z,95822.84
2023-05-12T23:09:42.334Z,95819.13
2023-05-12T23:12:09.054Z,95817.06
2023-05-12T23:14:35.520Z,95802.88
2023-05-12T23:17:02.056Z,95808.69
2023-05-12T23:19:28.610Z,95819.97
2023-05-12T23:21:55.124Z,95785.63
2023-05-12T23:24:21.998Z,95820.75
2023-05-12T23:26:48.775Z,95795.88
2023-05-12T23:29:15.299Z,95809.75
2023-05-12T23:31:41.927Z,95814.09
2023-05-12T23:34:08.396Z,95816.25
2023-05-12T23:36:34.936Z,95810.47
2023-05-12T23:39:01.392Z,95784.84
2023-05-12T23:41:31.453Z,95819.44
2023-05-12T23:43:58.568Z,95811.00
2023-05-12T23:46:25.807Z,95797.41
2023-05-12T23:48:52.407Z,95800.50
2023-05-12T23:51:18.988Z,95803.16
2023-05-12T23:53:45.467Z,95788.47
2023-05-12T23:56:11.892Z,95780.03
2023-05-12T23:58:38.394Z,95800.25
